createdAt,value
2022-12-15T00:00:24.387Z,96968.34
2022-12-15T00:03:31.173Z,96969.49
2022-12-15T00:06:19.797Z,96971.00
2022-12-15T00:09:11.239Z,96973.64
2022-12-15T00:12:00.848Z,96976.21
2022-12-15T00:14:47.764Z,96977.84
2022-12-15T00:17:35.077Z,96984.52
2022-12-15T00:20:22.840Z,96987.44
2022-12-15T00:23:09.478Z,96990.27
2022-12-15T00:25:56.452Z,96995.20
2022-12-15T00:28:43.355Z,96997.44
2022-12-15T00:31:30.504Z,97006.48
2022-12-15T00:34:17.390Z,97010.53
2022-12-15T00:37:06.331Z,97016.23
2022-12-15T00:39:34.303Z,97018.06
2022-12-15T00:42:02.363Z,97022.08
2022-12-15T00:44:30.343Z,97022.85
2022-12-15T00:46:58.872Z,97029.56
2022-12-15T00:49:48.782Z,97031.29
2022-12-15T00:52:37.010Z,97030.59
2022-12-15T00:55:24.423Z,97033.94
2022-12-15T00:58:12.557Z,97034.95
2022-12-15T01:00:59.888Z,97036.65
2022-12-15T01:03:46.686Z,97037.99
2022-12-15T01:06:35.776Z,97038.61
2022-12-15T01:09:23.311Z,97040.73
2022-12-15T01:12:09.924Z,97038.01
2022-12-15T01:14:56.780Z,97038.98
2022-12-15T01:17:44.044Z,97046.55
2022-12-15T01:20:21.159Z,97051.27
2022-12-15T01:22:53.080Z,97045.52
2022-12-15T01:25:24.735Z,97044.65
2022-12-15T01:27:52.712Z,97050.31
2022-12-15T01:30:24.490Z,97051.32
2022-12-15T01:32:52.952Z,97053.45
2022-12-15T01:35:21.847Z,97055.58
2022-12-15T01:37:50.041Z,97058.33
2022-12-15T01:40:39.466Z,97058.98
2022-12-15T01:43:27.667Z,97062.98
2022-12-15T01:46:07.804Z,97069.02
2022-12-15T01:48:41.701Z,97068.83
2022-12-15T01:51:45.128Z,97069.85
2022-12-15T01:54:45.375Z,97074.08
2022-12-15T01:57:24.634Z,97073.34
2022-12-15T01:59:58.086Z,97075.26
2022-12-15T02:02:29.661Z,97077.03
2022-12-15T02:05:00.031Z,97074.26
2022-12-15T02:07:27.948Z,97079.67
2022-12-15T02:10:00.962Z,97079.73
2022-12-15T02:12:47.587Z,97083.24
2022-12-15T02:15:24.706Z,97087.67
2022-12-15T02:18:11.556Z,97085.39
2022-12-15T02:20:56.651Z,97091.14
2022-12-15T02:23:52.916Z,97089.55
2022-12-15T02:26:59.528Z,97090.44
2022-12-15T02:29:30.629Z,97095.83
2022-12-15T02:31:58.508Z,97102.50
2022-12-15T02:34:45.107Z,97110.81
2022-12-15T02:37:22.850Z,97114.17
2022-12-15T02:39:50.853Z,97114.81
2022-12-15T02:42:18.967Z,97113.58
2022-12-15T02:44:56.335Z,97120.73
2022-12-15T02:48:02.124Z,97121.16
2022-12-15T02:50:40.201Z,97128.36
2022-12-15T02:53:27.631Z,97131.58
2022-12-15T02:56:19.297Z,97133.40
2022-12-15T02:59:02.598Z,97136.81
2022-12-15T03:01:37.003Z,97134.84
2022-12-15T03:04:08.441Z,97138.42
2022-12-15T03:06:36.422Z,97140.73
2022-12-15T03:09:04.585Z,97136.70
2022-12-15T03:11:32.465Z,97135.88
2022-12-15T03:14:00.299Z,97138.13
2022-12-15T03:16:28.265Z,97143.42
2022-12-15T03:18:56.124Z,97145.39
2022-12-15T03:21:24.027Z,97149.34
2022-12-15T03:23:51.931Z,97159.19
2022-12-15T03:26:19.780Z,97162.77
2022-12-15T03:28:48.665Z,97167.55
2022-12-15T03:31:16.653Z,97168.66
2022-12-15T03:33:44.540Z,97167.39
2022-12-15T03:36:28.485Z,97165.61
2022-12-15T03:38:56.336Z,97167.66
2022-12-15T03:41:24.287Z,97171.89
2022-12-15T03:43:52.188Z,97175.45
2022-12-15T03:46:20.212Z,97180.80
2022-12-15T03:48:49.237Z,97183.89
2022-12-15T03:51:17.103Z,97191.33
2022-12-15T03:53:45.083Z,97198.10
2022-12-15T03:56:13.635Z,97195.04
2022-12-15T03:58:41.476Z,97204.46
2022-12-15T04:01:11.896Z,97198.40
2022-12-15T04:03:41.087Z,97203.31
2022-12-15T04:06:09.068Z,97207.20
2022-12-15T04:08:37.043Z,97209.20
2022-12-15T04:11:05.146Z,97208.13
2022-12-15T04:13:33.513Z,97206.77
2022-12-15T04:16:03.512Z,97210.23
2022-12-15T04:18:31.625Z,97215.90
2022-12-15T04:20:59.401Z,97223.42
2022-12-15T04:23:27.641Z,97226.11
2022-12-15T04:26:14.446Z,97229.16
2022-12-15T04:29:01.589Z,97229.81
2022-12-15T04:31:52.885Z,97233.77
2022-12-15T04:34:43.281Z,97241.08
2022-12-15T04:37:32.487Z,97241.98
2022-12-15T04:40:19.664Z,97247.53
2022-12-15T04:43:06.962Z,97256.50
2022-12-15T04:45:53.945Z,97255.63
2022-12-15T04:48:40.807Z,97258.01
2022-12-15T04:51:27.256Z,97257.02
2022-12-15T04:54:14.030Z,97257.03
2022-12-15T04:57:00.632Z,97267.53
2022-12-15T04:59:48.417Z,97272.63
2022-12-15T05:02:35.221Z,97284.94
2022-12-15T05:05:22.115Z,97281.23
2022-12-15T05:08:08.859Z,97289.71
2022-12-15T05:10:55.543Z,97291.48
2022-12-15T05:13:42.311Z,97300.11
2022-12-15T05:16:29.021Z,97303.39
2022-12-15T05:19:16.030Z,97307.06
2022-12-15T05:22:02.441Z,97313.45
2022-12-15T05:24:49.155Z,97318.79
2022-12-15T05:27:35.693Z,97327.75
2022-12-15T05:30:22.943Z,97342.23
2022-12-15T05:32:50.852Z,97343.96
2022-12-15T05:35:18.907Z,97337.63
2022-12-15T05:37:46.836Z,97339.00
2022-12-15T05:40:14.782Z,97338.85
2022-12-15T05:42:42.711Z,97338.04
2022-12-15T05:45:11.007Z,97344.10
2022-12-15T05:47:38.804Z,97346.21
2022-12-15T05:50:07.341Z,97345.38
2022-12-15T05:52:35.319Z,97349.84
2022-12-15T05:55:03.525Z,97362.69
2022-12-15T05:57:31.416Z,97371.09
2022-12-15T05:59:59.436Z,97381.59
2022-12-15T06:02:30.595Z,97377.70
2022-12-15T06:04:58.928Z,97372.05
2022-12-15T06:07:27.379Z,97383.08
2022-12-15T06:09:55.383Z,97392.02
2022-12-15T06:12:23.412Z,97397.38
2022-12-15T06:14:51.475Z,97398.08
2022-12-15T06:17:19.458Z,97402.06
2022-12-15T06:19:48.389Z,97410.20
2022-12-15T06:22:16.544Z,97424.52
2022-12-15T06:24:44.387Z,97440.20
2022-12-15T06:27:12.317Z,97439.38
2022-12-15T06:29:40.148Z,97433.11
2022-12-15T06:32:09.127Z,97438.87
2022-12-15T06:34:37.155Z,97445.76
2022-12-15T06:37:05.229Z,97441.95
2022-12-15T06:39:33.082Z,97444.29
2022-12-15T06:42:00.978Z,97449.21
2022-12-15T06:44:28.888Z,97446.98
2022-12-15T06:46:56.950Z,97448.16
2022-12-15T06:49:24.859Z,97452.04
2022-12-15T06:51:52.765Z,97458.66
2022-12-15T06:54:20.832Z,97467.05
2022-12-15T06:56:50.229Z,97461.16
2022-12-15T06:59:18.392Z,97461.08
2022-12-15T07:01:46.653Z,97468.88
2022-12-15T07:04:15.249Z,97475.13
2022-12-15T07:06:43.394Z,97486.90
2022-12-15T07:09:13.306Z,97503.16
2022-12-15T07:11:41.235Z,97513.91
2022-12-15T07:14:10.187Z,97515.44
2022-12-15T07:16:38.223Z,97530.86
2022-12-15T07:19:06.354Z,97539.09
2022-12-15T07:21:34.345Z,97536.19
2022-12-15T07:24:02.846Z,97530.35
2022-12-15T07:26:31.608Z,97516.89
2022-12-15T07:28:59.480Z,97534.70
2022-12-15T07:31:27.426Z,97549.09
2022-12-15T07:33:57.343Z,97550.06
2022-12-15T07:36:26.554Z,97553.27
2022-12-15T07:39:01.243Z,97556.87
2022-12-15T07:41:30.201Z,97556.13
2022-12-15T07:43:58.771Z,97564.29
2022-12-15T07:46:26.868Z,97565.95
2022-12-15T07:48:55.942Z,97569.34
2022-12-15T07:51:23.963Z,97568.71
2022-12-15T07:53:52.041Z,97575.60
2022-12-15T07:56:20.640Z,97572.29
2022-12-15T07:58:49.704Z,97576.53
2022-12-15T08:01:19.184Z,97583.22
2022-12-15T08:03:49.136Z,97579.92
2022-12-15T08:06:17.359Z,97585.37
2022-12-15T08:08:50.304Z,97592.89
2022-12-15T08:11:22.602Z,97587.27
2022-12-15T08:14:10.522Z,97594.88
2022-12-15T08:16:39.261Z,97601.60
2022-12-15T08:19:11.053Z,97608.97
2022-12-15T08:21:40.971Z,97615.32
2022-12-15T08:24:09.923Z,97614.59
2022-12-15T08:26:39.062Z,97615.09
2022-12-15T08:31:56.413Z,97633.29
2022-12-15T08:34:24.469Z,97646.34
2022-12-15T08:36:52.623Z,97645.05
2022-12-15T08:39:20.746Z,97651.29
2022-12-15T08:41:49.957Z,97641.83
2022-12-15T08:44:18.374Z,97641.05
2022-12-15T08:46:46.229Z,97636.70
2022-12-15T08:49:19.602Z,97636.59
2022-12-15T08:51:50.681Z,97638.95
2022-12-15T08:54:19.767Z,97642.98
2022-12-15T08:56:47.950Z,97649.41
2022-12-15T08:59:16.124Z,97652.16
2022-12-15T09:01:44.269Z,97647.48
2022-12-15T09:04:12.269Z,97648.33
2022-12-15T09:06:40.411Z,97652.66
2022-12-15T09:09:10.683Z,97653.77
2022-12-15T09:11:38.726Z,97649.78
2022-12-15T09:14:07.296Z,97657.46
2022-12-15T09:16:35.275Z,97661.36
2022-12-15T09:19:03.788Z,97657.67
2022-12-15T09:21:32.349Z,97668.09
2022-12-15T09:24:02.205Z,97663.49
2022-12-15T09:26:31.593Z,97655.98
2022-12-15T09:29:00.391Z,97662.52
2022-12-15T09:31:31.224Z,97670.83
2022-12-15T09:34:00.387Z,97675.09
2022-12-15T09:36:30.506Z,97679.59
2022-12-15T09:38:58.862Z,97684.11
2022-12-15T09:41:30.000Z,97688.30
2022-12-15T09:44:10.632Z,97690.28
2022-12-15T09:46:50.782Z,97694.22
2022-12-15T09:49:55.641Z,97696.45
2022-12-15T09:52:43.152Z,97696.23
2022-12-15T09:55:30.875Z,97687.91
2022-12-15T09:58:11.338Z,97684.14
2022-12-15T10:00:52.398Z,97695.05
2022-12-15T10:03:48.610Z,97695.56
2022-12-15T10:06:22.693Z,97697.45
2022-12-15T10:09:00.997Z,97704.52
2022-12-15T10:11:59.311Z,97706.29
2022-12-15T10:14:27.139Z,97713.55
2022-12-15T10:17:16.575Z,97710.16
2022-12-15T10:20:09.838Z,97710.73
2022-12-15T10:22:38.257Z,97702.92
2022-12-15T10:25:18.080Z,97696.40
2022-12-15T10:27:57.377Z,97685.40
2022-12-15T10:30:25.422Z,97690.77
2022-12-15T10:32:59.541Z,97691.45
2022-12-15T10:35:33.826Z,97689.00
2022-12-15T10:38:05.224Z,97677.19
2022-12-15T10:40:44.410Z,97671.66
2022-12-15T10:43:32.503Z,97666.05
2022-12-15T10:46:20.787Z,97668.46
2022-12-15T10:48:58.085Z,97676.98
2022-12-15T10:51:31.808Z,97679.46
2022-12-15T10:54:09.975Z,97681.20
2022-12-15T10:57:00.602Z,97683.85
2022-12-15T10:59:38.181Z,97682.96
2022-12-15T11:02:24.506Z,97684.42
2022-12-15T11:05:15.670Z,97686.46
2022-12-15T11:07:48.164Z,97686.73
2022-12-15T11:10:50.552Z,97691.06
2022-12-15T11:13:20.768Z,97692.61
2022-12-15T11:15:53.438Z,97701.88
2022-12-15T11:18:35.243Z,97708.86
2022-12-15T11:21:17.504Z,97715.93
2022-12-15T11:23:50.775Z,97716.84
2022-12-15T11:26:36.555Z,97719.52
2022-12-15T11:29:34.615Z,97721.38
2022-12-15T11:32:07.003Z,97717.63
2022-12-15T11:34:39.257Z,97720.90
2022-12-15T11:37:40.273Z,97724.73
2022-12-15T11:40:34.200Z,97731.24
2022-12-15T11:43:21.038Z,97735.95
2022-12-15T11:46:15.135Z,97729.56
2022-12-15T11:48:47.315Z,97725.29
2022-12-15T11:51:25.314Z,97736.52
2022-12-15T11:54:14.166Z,97734.95
2022-12-15T11:56:45.390Z,97735.95
2022-12-15T11:59:37.386Z,97733.38
2022-12-15T12:02:20.821Z,97740.67
2022-12-15T12:05:21.371Z,97750.95
2022-12-15T12:07:53.092Z,97752.23
2022-12-15T12:10:30.174Z,97757.77
2022-12-15T12:13:09.953Z,97760.88
2022-12-15T12:16:04.182Z,97758.34
2022-12-15T12:18:46.803Z,97761.94
2022-12-15T12:21:26.826Z,97754.61
2022-12-15T12:24:02.109Z,97747.09
2022-12-15T12:26:45.244Z,97737.86
2022-12-15T12:29:17.286Z,97740.73
2022-12-15T12:31:57.737Z,97741.05
2022-12-15T12:34:35.118Z,97741.06
2022-12-15T12:37:32.414Z,97743.28
2022-12-15T12:40:03.458Z,97746.45
2022-12-15T12:42:43.137Z,97747.64
2022-12-15T12:45:14.579Z,97751.88
2022-12-15T12:47:50.302Z,97750.08
2022-12-15T12:50:22.525Z,97755.48
2022-12-15T12:52:54.131Z,97759.36
2022-12-15T12:55:44.069Z,97762.68
2022-12-15T12:58:37.324Z,97755.02
2022-12-15T13:01:14.296Z,97757.15
2022-12-15T13:03:42.658Z,97758.45
2022-12-15T13:06:42.767Z,97758.82
2022-12-15T13:09:17.038Z,97757.56
2022-12-15T13:11:51.705Z,97757.89
2022-12-15T13:14:26.051Z,97752.95
2022-12-15T13:17:27.168Z,97751.51
2022-12-15T13:19:58.520Z,97749.81
2022-12-15T13:22:42.400Z,97751.45
2022-12-15T13:25:35.870Z,97752.35
2022-12-15T13:28:44.489Z,97750.10
2022-12-15T13:31:13.881Z,97746.76
2022-12-15T13:33:51.400Z,97749.08
2022-12-15T13:36:50.661Z,97744.32
2022-12-15T13:39:22.315Z,97757.79
2022-12-15T13:42:31.737Z,97764.55
2022-12-15T13:44:52.046Z,97771.08
2022-12-15T13:47:29.796Z,97774.27
2022-12-15T13:50:01.839Z,97778.98
2022-12-15T13:53:17.378Z,97784.73
2022-12-15T13:55:38.601Z,97785.44
2022-12-15T13:58:16.167Z,97795.71
2022-12-15T14:00:54.773Z,97798.12
2022-12-15T14:03:24.101Z,97797.21
2022-12-15T14:05:53.513Z,97805.64
2022-12-15T14:08:23.893Z,97811.42
2022-12-15T14:10:54.030Z,97817.23
2022-12-15T14:13:36.232Z,97814.55
2022-12-15T14:16:17.630Z,97815.83
2022-12-15T14:19:03.989Z,97818.10
2022-12-15T14:21:31.968Z,97811.76
2022-12-15T14:24:37.105Z,97816.61
2022-12-15T14:29:37.227Z,97838.30
2022-12-15T14:32:10.300Z,97841.59
2022-12-15T14:34:44.398Z,97853.21
2022-12-15T14:37:21.215Z,97853.04
2022-12-15T14:39:50.605Z,97854.08
2022-12-15T14:42:20.675Z,97852.63
2022-12-15T14:44:58.066Z,97844.88
2022-12-15T14:47:33.904Z,97844.96
2022-12-15T14:50:09.851Z,97853.42
2022-12-15T14:52:40.214Z,97864.49
2022-12-15T14:55:37.136Z,97869.50
2022-12-15T14:58:27.518Z,97864.98
2022-12-15T15:00:56.282Z,97860.29
2022-12-15T15:03:16.428Z,97828.73
2022-12-15T15:03:35.589Z,97862.85
2022-12-15T15:06:12.998Z,97866.89
2022-12-15T15:08:48.250Z,97866.01
2022-12-15T15:11:37.210Z,97859.71
2022-12-15T15:14:09.151Z,97861.30
2022-12-15T15:16:39.430Z,97862.13
2022-12-15T15:19:15.645Z,97872.79
2022-12-15T15:21:47.163Z,97872.65
2022-12-15T15:24:15.453Z,97877.33
2022-12-15T15:26:43.557Z,97878.52
2022-12-15T15:29:30.593Z,97878.53
2022-12-15T15:32:07.950Z,97881.55
2022-12-15T15:34:36.103Z,97882.08
2022-12-15T15:37:06.361Z,97892.66
2022-12-15T15:39:34.344Z,97891.22
2022-12-15T15:42:12.629Z,97894.86
2022-12-15T15:44:40.721Z,97894.13
2022-12-15T15:47:22.650Z,97884.80
2022-12-15T15:49:55.110Z,97878.02
2022-12-15T15:52:23.035Z,97869.88
2022-12-15T15:54:52.927Z,97872.17
2022-12-15T15:57:21.042Z,97879.05
2022-12-15T15:59:49.203Z,97870.71
2022-12-15T16:02:17.457Z,97865.35
2022-12-15T16:04:45.881Z,97858.64
2022-12-15T16:07:24.755Z,97850.38
2022-12-15T16:09:53.604Z,97839.46
2022-12-15T16:12:58.541Z,97831.14
2022-12-15T16:15:29.720Z,97829.06
2022-12-15T16:17:59.146Z,97826.68
2022-12-15T16:20:28.943Z,97823.98
2022-12-15T16:22:59.328Z,97818.70
2022-12-15T16:25:45.240Z,97818.05
2022-12-15T16:28:25.011Z,97823.95
2022-12-15T16:30:55.914Z,97827.05
2022-12-15T16:33:24.841Z,97821.59
2022-12-15T16:35:54.010Z,97828.16
2022-12-15T16:38:26.337Z,97833.52
2022-12-15T16:40:56.089Z,97831.79
2022-12-15T16:43:26.886Z,97835.62
2022-12-15T16:45:57.222Z,97841.40
2022-12-15T16:48:27.741Z,97842.70
2022-12-15T16:51:01.163Z,97845.20
2022-12-15T16:53:33.352Z,97855.45
2022-12-15T16:56:06.720Z,97853.07
2022-12-15T16:58:35.970Z,97851.55
2022-12-15T17:01:04.397Z,97861.40
2022-12-15T17:03:32.387Z,97856.89
2022-12-15T17:06:01.957Z,97859.63
2022-12-15T17:08:40.350Z,97863.98
2022-12-15T17:11:17.132Z,97866.96
2022-12-15T17:13:48.278Z,97866.99
2022-12-15T17:16:17.572Z,97858.70
2022-12-15T17:18:50.107Z,97862.48
2022-12-15T17:21:28.825Z,97870.75
2022-12-15T17:24:04.148Z,97867.99
2022-12-15T17:26:36.595Z,97869.91
2022-12-15T17:29:14.904Z,97865.88
2022-12-15T17:31:42.987Z,97868.35
2022-12-15T17:34:32.499Z,97859.44
2022-12-15T17:37:04.505Z,97854.52
2022-12-15T17:39:33.617Z,97849.65
2022-12-15T17:42:02.841Z,97846.25
2022-12-15T17:44:37.471Z,97844.14
2022-12-15T17:47:08.826Z,97840.52
2022-12-15T17:49:38.740Z,97839.34
2022-12-15T17:52:27.105Z,97842.92
2022-12-15T17:54:56.290Z,97844.06
2022-12-15T17:57:24.540Z,97842.16
2022-12-15T17:59:53.984Z,97847.47
2022-12-15T18:02:22.163Z,97858.25
2022-12-15T18:04:50.508Z,97854.30
2022-12-15T18:07:23.966Z,97852.43
2022-12-15T18:09:52.380Z,97858.30
2022-12-15T18:12:23.993Z,97859.64
2022-12-15T18:14:52.350Z,97857.92
2022-12-15T18:17:20.682Z,97857.60
2022-12-15T18:19:48.879Z,97853.52
2022-12-15T18:22:23.328Z,97866.98
2022-12-15T18:24:53.588Z,97862.88
2022-12-15T18:27:25.193Z,97860.33
2022-12-15T18:29:54.313Z,97862.73
2022-12-15T18:32:26.385Z,97862.84
2022-12-15T18:34:55.217Z,97860.49
2022-12-15T18:37:26.260Z,97859.36
2022-12-15T18:39:58.295Z,97861.99
2022-12-15T18:42:33.674Z,97871.36
2022-12-15T18:45:05.994Z,97877.13
2022-12-15T18:47:34.286Z,97877.40
2022-12-15T18:50:03.482Z,97882.73
2022-12-15T18:52:34.893Z,97883.98
2022-12-15T18:55:03.307Z,97883.37
2022-12-15T18:57:36.028Z,97878.67
2022-12-15T19:00:27.950Z,97878.06
2022-12-15T19:03:00.190Z,97879.64
2022-12-15T19:05:29.245Z,97878.05
2022-12-15T19:08:10.909Z,97869.05
2022-12-15T19:10:52.537Z,97868.11
2022-12-15T19:13:23.467Z,97856.21
2022-12-15T19:15:53.192Z,97852.35
2022-12-15T19:18:42.352Z,97850.69
2022-12-15T19:21:44.422Z,97851.96
2022-12-15T19:24:40.594Z,97851.34
2022-12-15T19:27:12.809Z,97851.84
2022-12-15T19:29:41.595Z,97852.95
2022-12-15T19:32:09.713Z,97849.40
2022-12-15T19:34:38.263Z,97843.63
2022-12-15T19:37:32.103Z,97847.38
2022-12-15T19:40:01.847Z,97843.70
2022-12-15T19:42:31.429Z,97844.48
2022-12-15T19:45:01.558Z,97844.17
2022-12-15T19:47:29.989Z,97840.67
2022-12-15T19:49:57.968Z,97844.52
2022-12-15T19:52:26.668Z,97849.80
2022-12-15T19:54:55.758Z,97853.34
2022-12-15T19:57:27.415Z,97843.52
2022-12-15T19:59:55.342Z,97842.63
2022-12-15T20:02:23.388Z,97840.77
2022-12-15T20:04:51.601Z,97837.92
2022-12-15T20:07:22.357Z,97840.99
2022-12-15T20:09:50.381Z,97847.59
2022-12-15T20:12:19.800Z,97851.23
2022-12-15T20:14:47.865Z,97855.02
2022-12-15T20:17:16.154Z,97852.17
2022-12-15T20:19:44.669Z,97844.38
2022-12-15T20:22:19.195Z,97841.25
2022-12-15T20:24:48.457Z,97843.60
2022-12-15T20:27:19.293Z,97843.11
2022-12-15T20:29:47.441Z,97841.25
2022-12-15T20:32:20.234Z,97843.30
2022-12-15T20:34:48.966Z,97835.88
2022-12-15T20:37:27.100Z,97824.75
2022-12-15T20:39:57.612Z,97821.14
2022-12-15T20:42:26.016Z,97817.70
2022-12-15T20:44:54.508Z,97811.59
2022-12-15T20:47:27.769Z,97808.72
2022-12-15T20:49:55.867Z,97808.26
2022-12-15T20:52:27.155Z,97807.77
2022-12-15T20:54:55.468Z,97805.11
2022-12-15T20:57:23.309Z,97804.14
2022-12-15T20:59:51.276Z,97801.27
2022-12-15T21:02:20.641Z,97799.67
2022-12-15T21:04:49.616Z,97797.33
2022-12-15T21:07:17.718Z,97797.57
2022-12-15T21:09:45.735Z,97797.22
2022-12-15T21:12:22.211Z,97795.96
2022-12-15T21:14:51.220Z,97801.86
2022-12-15T21:17:23.287Z,97793.66
2022-12-15T21:19:51.964Z,97795.29
2022-12-15T21:22:24.101Z,97790.09
2022-12-15T21:24:54.919Z,97780.13
2022-12-15T21:27:23.392Z,97770.73
2022-12-15T21:29:52.885Z,97770.32
2022-12-15T21:32:21.033Z,97771.14
2022-12-15T21:34:50.081Z,97772.38
2022-12-15T21:37:39.431Z,97778.50
2022-12-15T21:40:17.474Z,97774.67
2022-12-15T21:42:47.305Z,97768.43
2022-12-15T21:45:19.318Z,97761.77
2022-12-15T21:48:07.354Z,97760.46
2022-12-15T21:50:37.046Z,97757.27
2022-12-15T21:53:07.033Z,97758.50
2022-12-15T21:55:34.920Z,97762.60
2022-12-15T21:58:03.301Z,97766.92
2022-12-15T22:00:31.234Z,97765.36
2022-12-15T22:02:59.394Z,97763.75
2022-12-15T22:05:31.524Z,97752.56
2022-12-15T22:08:12.172Z,97759.02
2022-12-15T22:10:40.095Z,97751.95
2022-12-15T22:13:14.958Z,97751.13
2022-12-15T22:15:43.788Z,97753.67
2022-12-15T22:18:19.445Z,97756.32
2022-12-15T22:20:50.782Z,97756.36
2022-12-15T22:23:23.147Z,97750.56
2022-12-15T22:25:55.154Z,97746.10
2022-12-15T22:28:27.378Z,97745.79
2022-12-15T22:30:57.908Z,97743.25
2022-12-15T22:33:26.277Z,97742.55
2022-12-15T22:35:56.179Z,97738.10
2022-12-15T22:38:24.234Z,97739.80
2022-12-15T22:40:54.192Z,97736.45
2022-12-15T22:43:34.258Z,97723.98
2022-12-15T22:46:04.808Z,97722.79
2022-12-15T22:48:35.286Z,97716.27
2022-12-15T22:51:04.374Z,97717.61
2022-12-15T22:53:34.517Z,97716.75
2022-12-15T22:56:06.317Z,97715.21
2022-12-15T22:58:37.358Z,97716.11
2022-12-15T23:01:06.817Z,97718.70
2022-12-15T23:03:35.680Z,97714.58
2022-12-15T23:06:04.852Z,97707.02
2022-12-15T23:08:33.072Z,97694.57
2022-12-15T23:11:19.704Z,97686.25
2022-12-15T23:13:47.730Z,97675.84
2022-12-15T23:16:22.161Z,97675.61
2022-12-15T23:18:51.859Z,97678.42
2022-12-15T23:21:21.593Z,97673.60
2022-12-15T23:23:50.120Z,97679.11
2022-12-15T23:26:20.531Z,97671.50
2022-12-15T23:28:49.416Z,97668.27
2022-12-15T23:31:17.917Z,97662.59
2022-12-15T23:33:46.920Z,97656.40
2022-12-15T23:36:14.761Z,97650.88
2022-12-15T23:38:42.941Z,97646.73
2022-12-15T23:41:14.789Z,97639.98
2022-12-15T23:43:42.844Z,97643.98
2022-12-15T23:46:10.903Z,97638.57
2022-12-15T23:48:41.301Z,97648.98
2022-12-15T23:51:12.647Z,97646.64
2022-12-15T23:53:41.781Z,97648.80
2022-12-15T23:56:18.476Z,97650.89
2022-12-15T23:58:49.373Z,97656.92
